Time;durP1;ratioP1;P1;durP2;ratioP2;P2;SDS_P1;SDS_P2;PMS_P1;PMS_P2;Temp;Humidity;BMP_temperature;BMP_pressure;BME280_temperature;BME280_humidity;BME280_pressure;Samples;Min_cycle;Max_cycle;Signal;HPM_P1;HPM_P2
2023/01/31 00:09:55;;;;;;;8.5;4.9;;;;;;;1.7;89.4;98010;;;;
2023/01/31 00:19:55;;;;;;;11.7;5.3;;;;;;;1.7;89.8;98010;;;;
2023/01/31 00:29:55;;;;;;;11.7;5.3;;;;;;;1.7;90;98010;;;;
2023/01/31 00:39:55;;;;;;;11.7;5.3;;;;;;;1.8;90.1;98030;;;;
2023/01/31 00:49:55;;;;;;;9.1;4.8;;;;;;;1.8;89.8;98030;;;;
2023/01/31 01:00:55;;;;;;;9.1;4.8;;;;;;;1.8;89.5;98040;;;;
2023/01/31 01:10:55;;;;;;;9.1;4.8;;;;;;;1.6;90.2;98040;;;;
2023/01/31 01:21:56;;;;;;;9.8;5.1;;;;;;;1.6;90.9;98060;;;;
2023/01/31 01:31:55;;;;;;;9.8;5.1;;;;;;;1.7;91.1;98060;;;;
2023/01/31 01:42:56;;;;;;;9.8;5.1;;;;;;;1.8;90.9;98070;;;;
2023/01/31 01:53:55;;;;;;;6.8;4.3;;;;;;;1.8;90.7;98080;;;;
2023/01/31 02:03:55;;;;;;;6.8;4.3;;;;;;;1.8;91.1;98090;;;;
2023/01/31 02:14:55;;;;;;;6.8;4.3;;;;;;;1.8;91;98100;;;;
2023/01/31 02:24:55;;;;;;;10.9;5.7;;;;;;;1.8;90.9;98110;;;;
2023/01/31 02:35:55;;;;;;;10.9;5.7;;;;;;;1.8;90.7;98130;;;;
2023/01/31 02:45:55;;;;;;;10.9;5.7;;;;;;;1.9;90.4;98150;;;;
2023/01/31 02:56:55;;;;;;;10;6.6;;;;;;;2;89.9;98160;;;;
2023/01/31 03:06:58;;;;;;;10;6.6;;;;;;;2;89;98170;;;;
2023/01/31 03:17:59;;;;;;;10;6.6;;;;;;;2.1;87.1;98190;;;;
2023/01/31 03:27:56;;;;;;;11.3;4.3;;;;;;;2.1;86.5;98190;;;;
2023/01/31 03:37:55;;;;;;;11.3;4.3;;;;;;;2.1;86.2;98210;;;;
2023/01/31 03:48:55;;;;;;;10.2;5.5;;;;;;;2.1;86.2;98220;;;;
2023/01/31 03:58:55;;;;;;;10.2;5.5;;;;;;;2.1;86.3;98240;;;;
2023/01/31 04:09:55;;;;;;;10.2;5.5;;;;;;;2;86.4;98240;;;;
2023/01/31 04:20:55;;;;;;;12.1;3.2;;;;;;;2;87.2;98260;;;;
2023/01/31 04:31:55;;;;;;;12.1;3.2;;;;;;;1.8;87.1;98270;;;;
2023/01/31 04:42:55;;;;;;;12.1;3.2;;;;;;;1.7;86.6;98290;;;;
2023/01/31 04:53:55;;;;;;;4.9;2.2;;;;;;;1.5;88.9;98310;;;;
2023/01/31 05:03:55;;;;;;;4.9;2.2;;;;;;;1.3;89.9;98330;;;;
2023/01/31 05:14:55;;;;;;;4.9;2.2;;;;;;;1.2;90;98340;;;;
2023/01/31 05:24:55;;;;;;;8.2;3;;;;;;;1.3;89.7;98350;;;;
2023/01/31 05:34:55;;;;;;;8.2;3;;;;;;;1.1;89.4;98380;;;;
2023/01/31 05:44:55;;;;;;;8.2;3;;;;;;;1.1;89.5;98400;;;;
2023/01/31 05:55:55;;;;;;;8.9;3.2;;;;;;;1.1;89.5;98410;;;;
2023/01/31 06:06:55;;;;;;;8.9;3.2;;;;;;;1.1;89.2;98420;;;;
2023/01/31 06:16:55;;;;;;;8.9;3.2;;;;;;;1.1;89.4;98450;;;;
2023/01/31 06:27:55;;;;;;;7.8;3.5;;;;;;;1.2;90.1;98470;;;;
2023/01/31 06:38:55;;;;;;;7.8;3.5;;;;;;;1.3;89.9;98480;;;;
2023/01/31 06:49:55;;;;;;;7.6;3.5;;;;;;;1.4;89.2;98490;;;;
2023/01/31 06:59:55;;;;;;;7.6;3.5;;;;;;;1.5;88.2;98500;;;;
2023/01/31 07:10:55;;;;;;;7.6;3.5;;;;;;;1.6;87.2;98530;;;;
2023/01/31 07:20:55;;;;;;;11.7;5;;;;;;;1.7;86.6;98560;;;;
2023/01/31 07:31:55;;;;;;;11.7;5;;;;;;;1.7;85.8;98570;;;;
2023/01/31 07:41:55;;;;;;;11.7;5;;;;;;;1.7;85.8;98590;;;;
2023/01/31 07:51:55;;;;;;;9.8;3.9;;;;;;;1.7;85.8;98600;;;;
2023/01/31 08:03:59;;;;;;;9.8;3.9;;;;;;;1.8;85.4;98590;;;;
2023/01/31 08:13:55;;;;;;;9.8;3.9;;;;;;;1.9;84.4;98610;;;;
2023/01/31 08:23:55;;;;;;;8.1;3.9;;;;;;;2;83.6;98620;;;;
2023/01/31 08:33:56;;;;;;;8.1;3.9;;;;;;;2.1;83.1;98630;;;;
2023/01/31 08:44:55;;;;;;;8.1;3.9;;;;;;;2.2;82.3;98650;;;;
2023/01/31 08:54:55;;;;;;;6.6;3.4;;;;;;;2.3;82;98650;;;;
2023/01/31 09:05:55;;;;;;;6.6;3.4;;;;;;;2.5;81.1;98660;;;;
2023/01/31 09:16:55;;;;;;;6.6;3.4;;;;;;;2.7;80.4;98670;;;;
2023/01/31 09:26:55;;;;;;;13.1;5.2;;;;;;;2.7;79.5;98670;;;;
2023/01/31 09:36:56;;;;;;;13.1;5.2;;;;;;;2.6;79.1;98660;;;;
2023/01/31 09:47:55;;;;;;;12.2;5.7;;;;;;;2.9;79.2;98670;;;;
2023/01/31 09:57:55;;;;;;;12.2;5.7;;;;;;;3;80.3;98670;;;;
2023/01/31 10:07:55;;;;;;;12.2;5.7;;;;;;;3;81.5;98670;;;;
2023/01/31 10:18:55;;;;;;;14.8;6.3;;;;;;;3;81.4;98670;;;;
2023/01/31 10:28:55;;;;;;;14.8;6.3;;;;;;;3.1;80.8;98680;;;;
2023/01/31 10:39:55;;;;;;;14.8;6.3;;;;;;;3;80.3;98680;;;;
2023/01/31 10:50:55;;;;;;;11.1;5.9;;;;;;;3.1;79.8;98690;;;;
2023/01/31 11:01:55;;;;;;;11.1;5.9;;;;;;;3.1;77.9;98690;;;;
2023/01/31 11:11:55;;;;;;;11.1;5.9;;;;;;;3.2;76.6;98680;;;;
2023/01/31 11:22:55;;;;;;;12.7;5.5;;;;;;;3.5;75.5;98680;;;;
2023/01/31 11:33:55;;;;;;;12.7;5.5;;;;;;;3.2;76.3;98680;;;;
2023/01/31 11:43:56;;;;;;;12.7;5.5;;;;;;;3.1;77.3;98680;;;;
2023/01/31 11:54:55;;;;;;;6.8;3.7;;;;;;;2.7;78.9;98670;;;;
2023/01/31 12:04:55;;;;;;;6.8;3.7;;;;;;;2.7;79.8;98660;;;;
2023/01/31 12:15:55;;;;;;;6.8;3.7;;;;;;;3.1;79.2;98660;;;;
2023/01/31 12:25:55;;;;;;;10.4;4.7;;;;;;;3.4;77.3;98640;;;;
2023/01/31 12:36:55;;;;;;;10.4;4.7;;;;;;;4.1;73.6;98630;;;;
2023/01/31 12:46:55;;;;;;;10.4;4.7;;;;;;;4.3;72;98630;;;;
2023/01/31 12:57:55;;;;;;;8.1;4.1;;;;;;;4;73.8;98640;;;;
2023/01/31 13:08:55;;;;;;;8.1;4.1;;;;;;;3.5;75.9;98640;;;;
2023/01/31 13:18:55;;;;;;;9.4;5.1;;;;;;;3.1;77.1;98620;;;;
2023/01/31 13:28:55;;;;;;;9.4;5.1;;;;;;;3;78.1;98610;;;;
2023/01/31 13:38:55;;;;;;;9.4;5.1;;;;;;;3;77.7;98610;;;;
2023/01/31 13:49:55;;;;;;;11.1;5.5;;;;;;;3.3;77.1;98610;;;;
2023/01/31 13:59:55;;;;;;;11.1;5.5;;;;;;;3.1;76.6;98610;;;;
2023/01/31 14:09:57;;;;;;;11.1;5.5;;;;;;;3.1;76.6;98610;;;;
2023/01/31 14:20:55;;;;;;;9.5;6.3;;;;;;;3;76.5;98600;;;;
2023/01/31 14:30:55;;;;;;;9.5;6.3;;;;;;;2.9;76.7;98580;;;;
2023/01/31 14:40:55;;;;;;;9.5;6.3;;;;;;;2.7;77.5;98610;;;;
2023/01/31 14:50:54;;;;;;;11.7;5;;;;;;;2.5;79.4;98590;;;;
2023/01/31 15:00:55;;;;;;;11.7;5;;;;;;;2.4;81.7;98580;;;;
2023/01/31 15:10:56;;;;;;;11.7;5;;;;;;;2.3;82.8;98590;;;;
2023/01/31 15:20:54;;;;;;;12.8;6;;;;;;;2.1;84.2;98580;;;;
2023/01/31 15:30:55;;;;;;;12.8;6;;;;;;;2;84.6;98580;;;;
2023/01/31 15:41:55;;;;;;;12.8;6;;;;;;;2;84.7;98560;;;;
2023/01/31 15:51:54;;;;;;;14.8;6.5;;;;;;;2;84.6;98560;;;;
2023/01/31 16:01:54;;;;;;;14.8;6.5;;;;;;;2;84.6;98550;;;;
2023/01/31 16:12:55;;;;;;;14.8;6.5;;;;;;;1.9;84.9;98530;;;;
2023/01/31 16:23:55;;;;;;;15.3;8;;;;;;;1.9;86.4;98530;;;;
2023/01/31 16:33:56;;;;;;;15.3;8;;;;;;;1.8;87.5;98530;;;;
2023/01/31 16:43:55;;;;;;;15.3;8;;;;;;;1.7;88.4;98530;;;;
2023/01/31 16:54:54;;;;;;;11.3;5.8;;;;;;;1.6;88.8;98520;;;;
2023/01/31 17:04:55;;;;;;;11.3;5.8;;;;;;;1.7;88.7;98520;;;;
2023/01/31 17:14:56;;;;;;;11.3;5.8;;;;;;;1.9;88.5;98510;;;;
2023/01/31 17:24:54;;;;;;;15.5;6.4;;;;;;;1.9;88.1;98500;;;;
2023/01/31 17:35:55;;;;;;;15.5;6.4;;;;;;;1.9;87.9;98490;;;;
2023/01/31 17:46:54;;;;;;;13.9;8.1;;;;;;;2;87.6;98490;;;;
2023/01/31 17:56:54;;;;;;;13.9;8.1;;;;;;;1.9;87.1;98500;;;;
2023/01/31 18:07:54;;;;;;;13.9;8.1;;;;;;;2;86.9;98480;;;;
2023/01/31 18:17:54;;;;;;;13;8.3;;;;;;;2.1;86.9;98460;;;;
2023/01/31 18:28:56;;;;;;;13;8.3;;;;;;;2.1;87;98440;;;;
2023/01/31 18:38:54;;;;;;;13;8.3;;;;;;;2.1;87.1;98420;;;;
2023/01/31 18:49:54;;;;;;;12.3;6;;;;;;;2;87.6;98420;;;;
2023/01/31 19:00:55;;;;;;;12.3;6;;;;;;;2;88.2;98420;;;;
2023/01/31 19:11:54;;;;;;;12.3;6;;;;;;;2.1;88.2;98400;;;;
2023/01/31 19:21:55;;;;;;;8.4;4.5;;;;;;;2.1;87.9;98380;;;;
2023/01/31 19:32:54;;;;;;;8.4;4.5;;;;;;;2.1;87.4;98370;;;;
2023/01/31 19:43:54;;;;;;;8.4;4.5;;;;;;;2.2;87.1;98350;;;;
2023/01/31 19:53:54;;;;;;;8.4;3.7;;;;;;;2.3;86.4;98320;;;;
2023/01/31 20:04:55;;;;;;;8.4;3.7;;;;;;;2.4;85.5;98310;;;;
2023/01/31 20:14:54;;;;;;;8.4;3.7;;;;;;;2.5;84.7;98290;;;;
2023/01/31 20:25:54;;;;;;;8.3;3.8;;;;;;;2.6;84.3;98290;;;;
2023/01/31 20:35:54;;;;;;;8.3;3.8;;;;;;;2.7;83.9;98300;;;;
2023/01/31 20:46:54;;;;;;;6.7;3.6;;;;;;;2.8;83.1;98290;;;;
2023/01/31 20:57:54;;;;;;;6.7;3.6;;;;;;;3;82.6;98290;;;;
2023/01/31 21:07:54;;;;;;;6.7;3.6;;;;;;;3;82.9;98280;;;;
2023/01/31 21:18:56;;;;;;;6.1;2.9;;;;;;;2.9;83.2;98260;;;;
2023/01/31 21:28:54;;;;;;;6.1;2.9;;;;;;;3;82.9;98250;;;;
2023/01/31 21:39:54;;;;;;;6.1;2.9;;;;;;;3.1;82.5;98230;;;;
2023/01/31 21:50:54;;;;;;;5.6;2.5;;;;;;;3.1;83;98220;;;;
2023/01/31 22:00:54;;;;;;;5.6;2.5;;;;;;;3.1;83.2;98220;;;;
2023/01/31 22:10:54;;;;;;;5.6;2.5;;;;;;;3.1;83.9;98210;;;;
2023/01/31 22:21:54;;;;;;;5.3;2.8;;;;;;;3.1;84.2;98200;;;;
2023/01/31 22:32:54;;;;;;;5.3;2.8;;;;;;;3.2;84;98190;;;;
2023/01/31 22:43:54;;;;;;;5.3;2.8;;;;;;;3.2;83.7;98180;;;;
2023/01/31 22:54:54;;;;;;;5.4;2.7;;;;;;;3.3;83.7;98180;;;;
2023/01/31 23:05:54;;;;;;;5.4;2.7;;;;;;;3.1;85.2;98190;;;;
2023/01/31 23:15:54;;;;;;;4.4;2.5;;;;;;;3;86.3;98180;;;;
2023/01/31 23:26:56;;;;;;;4.4;2.5;;;;;;;2.9;87.4;98190;;;;
2023/01/31 23:37:54;;;;;;;4.4;2.5;;;;;;;3;87.3;98150;;;;
2023/01/31 23:48:54;;;;;;;5.4;3;;;;;;;3;86.7;98140;;;;
2023/01/31 23:58:54;;;;;;;5.4;3;;;;;;;3.1;86.1;98150;;;;
